createdAt,value
2022-12-08T00:02:42.565Z,47.23
2022-12-08T00:06:05.129Z,48.08
2022-12-08T00:09:24.221Z,43.70
2022-12-08T00:12:26.639Z,41.53
2022-12-08T00:15:29.051Z,46.33
2022-12-08T00:18:31.439Z,47.38
2022-12-08T00:21:33.903Z,45.22
2022-12-08T00:24:39.751Z,46.15
2022-12-08T00:27:42.363Z,47.38
2022-12-08T00:30:45.028Z,44.97
2022-12-08T00:33:47.459Z,42.93
2022-12-08T00:36:49.880Z,50.88
2022-12-08T00:39:52.255Z,48.92
2022-12-08T00:42:54.666Z,53.30
2022-12-08T00:45:57.098Z,49.72
2022-12-08T00:48:59.645Z,47.67
2022-12-08T00:52:02.104Z,48.25
2022-12-08T00:55:06.191Z,47.65
2022-12-08T00:58:08.639Z,46.00
2022-12-08T01:01:11.934Z,49.13
2022-12-08T01:04:18.141Z,45.77
2022-12-08T01:07:20.677Z,47.03
2022-12-08T01:10:23.573Z,42.95
2022-12-08T01:13:25.972Z,38.70
2022-12-08T01:16:33.675Z,34.25
2022-12-08T01:19:37.868Z,35.05
2022-12-08T01:22:40.400Z,29.55
2022-12-08T01:25:42.777Z,31.88
2022-12-08T01:28:46.087Z,29.77
2022-12-08T01:31:48.538Z,33.20
2022-12-08T01:34:50.991Z,31.87
2022-12-08T01:37:53.335Z,30.13
2022-12-08T01:40:55.815Z,33.83
2022-12-08T01:43:58.212Z,35.23
2022-12-08T01:47:00.703Z,31.50
2022-12-08T01:50:06.979Z,31.38
2022-12-08T01:53:14.546Z,37.95
2022-12-08T01:56:29.812Z,43.53
2022-12-08T01:59:38.233Z,42.30
2022-12-08T02:03:19.029Z,42.38
2022-12-08T02:06:21.640Z,41.63
2022-12-08T02:09:24.666Z,45.40
2022-12-08T02:12:27.188Z,40.05
2022-12-08T02:15:38.916Z,35.83
2022-12-08T02:19:30.426Z,40.95
2022-12-08T02:22:46.502Z,38.40
2022-12-08T02:26:01.244Z,39.35
2022-12-08T02:29:12.607Z,42.95
2022-12-08T02:32:55.589Z,39.97
2022-12-08T02:36:04.258Z,40.60
2022-12-08T02:39:15.725Z,37.90
2022-12-08T02:42:28.115Z,38.45
2022-12-08T02:45:36.849Z,40.90
2022-12-08T02:48:39.454Z,45.60
2022-12-08T02:51:41.870Z,40.17
2022-12-08T02:54:50.728Z,39.63
2022-12-08T02:57:58.964Z,42.70
2022-12-08T03:01:29.242Z,43.92
2022-12-08T03:04:47.180Z,42.15
2022-12-08T03:08:11.441Z,41.63
2022-12-08T03:11:23.401Z,32.40
2022-12-08T03:14:26.187Z,38.33
2022-12-08T03:17:31.208Z,42.08
2022-12-08T03:20:35.487Z,38.40
2022-12-08T03:23:39.527Z,36.22
2022-12-08T03:27:00.219Z,34.90
2022-12-08T03:30:03.233Z,35.58
2022-12-08T03:33:30.930Z,32.40
2022-12-08T03:36:33.802Z,42.10
2022-12-08T03:39:36.247Z,42.20
2022-12-08T03:42:38.728Z,47.90
2022-12-08T03:45:41.157Z,56.05
2022-12-08T03:48:43.709Z,47.50
2022-12-08T03:51:46.156Z,38.27
2022-12-08T03:54:48.666Z,38.35
2022-12-08T03:57:51.044Z,39.00
2022-12-08T04:00:53.420Z,48.10
2022-12-08T04:03:55.977Z,48.88
2022-12-08T04:06:58.465Z,39.05
2022-12-08T04:10:00.874Z,46.13
2022-12-08T04:13:03.434Z,46.13
2022-12-08T04:16:06.963Z,40.42
2022-12-08T04:19:15.398Z,42.58
2022-12-08T04:22:17.831Z,40.77
2022-12-08T04:25:20.235Z,49.25
2022-12-08T04:28:22.983Z,27.58
2022-12-08T04:31:25.576Z,46.58
2022-12-08T04:34:27.979Z,18.55
2022-12-08T04:37:30.389Z,26.02
2022-12-08T04:40:33.616Z,31.85
2022-12-08T04:43:36.973Z,39.20
2022-12-08T04:46:43.418Z,41.85
2022-12-08T04:49:46.367Z,36.90
2022-12-08T04:52:48.789Z,39.20
2022-12-08T04:55:51.314Z,46.67
2022-12-08T04:58:54.464Z,37.58
2022-12-08T05:01:57.293Z,50.58
2022-12-08T05:05:00.200Z,50.67
2022-12-08T05:08:02.744Z,45.50
2022-12-08T05:11:06.810Z,63.72
2022-12-08T05:14:12.009Z,58.37
2022-12-08T05:17:15.763Z,46.65
2022-12-08T05:20:18.183Z,44.80
2022-12-08T05:23:21.196Z,42.07
2022-12-08T05:26:23.591Z,46.42
2022-12-08T05:29:26.174Z,48.30
2022-12-08T05:32:28.615Z,40.33
2022-12-08T05:35:31.000Z,43.30
2022-12-08T05:38:33.436Z,50.50
2022-12-08T05:41:35.843Z,56.67
2022-12-08T05:44:38.316Z,63.97
2022-12-08T05:47:40.763Z,60.83
2022-12-08T05:50:50.425Z,87.70
2022-12-08T05:53:53.549Z,74.43
2022-12-08T05:56:56.013Z,68.47
2022-12-08T05:59:59.603Z,70.07
2022-12-08T06:03:02.503Z,64.03
2022-12-08T06:06:05.149Z,64.45
2022-12-08T06:09:09.064Z,62.03
2022-12-08T06:12:12.102Z,61.15
2022-12-08T06:15:14.570Z,51.90
2022-12-08T06:18:17.018Z,52.47
2022-12-08T06:21:20.026Z,58.15
2022-12-08T06:24:22.773Z,57.70
2022-12-08T06:27:25.364Z,58.20
2022-12-08T06:30:28.750Z,66.50
2022-12-08T06:33:31.366Z,73.38
2022-12-08T06:36:34.740Z,84.72
2022-12-08T06:39:37.348Z,70.75
2022-12-08T06:42:43.817Z,65.63
2022-12-08T06:45:46.297Z,48.97
2022-12-08T06:48:50.663Z,56.03
2022-12-08T06:51:53.207Z,58.22
2022-12-08T06:54:55.666Z,54.13
2022-12-08T06:57:58.150Z,56.33
2022-12-08T07:01:05.616Z,41.85
2022-12-08T07:04:08.443Z,45.22
2022-12-08T07:07:10.885Z,51.92
2022-12-08T07:10:13.736Z,50.53
2022-12-08T07:13:16.346Z,49.30
2022-12-08T07:16:19.057Z,46.67
2022-12-08T07:19:22.030Z,44.97
2022-12-08T07:22:24.763Z,49.40
2022-12-08T07:25:28.410Z,51.60
2022-12-08T07:28:32.791Z,46.40
2022-12-08T07:31:35.283Z,52.15
2022-12-08T07:34:38.092Z,48.13
2022-12-08T07:37:41.125Z,48.28
2022-12-08T07:40:43.662Z,45.72
2022-12-08T07:43:46.708Z,47.72
2022-12-08T07:46:49.094Z,47.93
2022-12-08T07:49:51.570Z,51.80
2022-12-08T07:52:54.120Z,69.57
2022-12-08T07:55:56.579Z,41.67
2022-12-08T07:58:59.025Z,47.28
2022-12-08T08:02:22.833Z,56.58
2022-12-08T08:05:24.118Z,38.70
2022-12-08T08:08:26.665Z,48.13
2022-12-08T08:11:29.322Z,39.05
2022-12-08T08:14:31.840Z,37.22
2022-12-08T08:17:36.458Z,37.88
2022-12-08T08:20:39.100Z,33.70
2022-12-08T08:23:41.676Z,41.90
2022-12-08T08:26:44.225Z,43.35
2022-12-08T08:29:46.796Z,38.58
2022-12-08T08:32:49.998Z,44.20
2022-12-08T08:35:52.462Z,43.92
2022-12-08T08:38:54.915Z,42.53
2022-12-08T08:41:57.848Z,34.73
2022-12-08T08:45:00.248Z,47.83
2022-12-08T08:48:02.855Z,42.88
2022-12-08T08:51:10.722Z,41.43
2022-12-08T08:54:13.238Z,30.95
2022-12-08T08:57:18.421Z,41.97
2022-12-08T09:00:23.216Z,59.22
2022-12-08T09:03:25.757Z,41.90
2022-12-08T09:06:28.709Z,46.40
2022-12-08T09:09:31.548Z,40.42
2022-12-08T09:12:34.033Z,39.80
2022-12-08T09:15:36.568Z,46.95
2022-12-08T09:18:39.159Z,36.35
2022-12-08T09:21:41.628Z,31.20
2022-12-08T09:24:44.126Z,40.83
2022-12-08T09:27:46.632Z,44.25
2022-12-08T09:30:51.764Z,38.50
2022-12-08T09:33:54.399Z,40.78
2022-12-08T09:36:57.203Z,39.03
2022-12-08T09:40:00.246Z,38.00
2022-12-08T09:43:21.375Z,40.47
2022-12-08T09:46:29.033Z,37.40
2022-12-08T09:49:43.030Z,48.83
2022-12-08T09:53:08.518Z,52.73
2022-12-08T09:56:18.900Z,51.80
2022-12-08T09:59:30.555Z,45.10
2022-12-08T10:02:33.113Z,48.97
2022-12-08T10:05:41.653Z,47.00
2022-12-08T10:09:21.175Z,50.63
2022-12-08T10:12:40.728Z,41.40
2022-12-08T10:16:14.022Z,42.97
2022-12-08T10:19:24.464Z,24.10
2022-12-08T10:22:33.682Z,52.03
2022-12-08T10:25:48.720Z,48.90
2022-12-08T10:28:51.803Z,39.75
2022-12-08T10:31:57.181Z,44.95
2022-12-08T10:35:11.163Z,39.30
2022-12-08T10:38:37.622Z,40.37
2022-12-08T10:41:40.732Z,40.63
2022-12-08T10:45:10.546Z,48.47
2022-12-08T10:48:21.287Z,36.97
2022-12-08T10:51:34.539Z,32.72
2022-12-08T10:54:42.048Z,40.75
2022-12-08T10:57:45.141Z,41.47
2022-12-08T11:00:48.143Z,41.80
2022-12-08T11:04:05.598Z,42.45
2022-12-08T11:07:13.355Z,39.38
2022-12-08T11:10:19.012Z,41.37
2022-12-08T11:13:24.545Z,37.13
2022-12-08T11:16:28.097Z,41.33
2022-12-08T11:19:30.914Z,42.00
2022-12-08T11:22:37.163Z,40.43
2022-12-08T11:25:40.248Z,43.20
2022-12-08T11:28:43.098Z,42.47
2022-12-08T11:31:54.772Z,44.72
2022-12-08T11:35:06.721Z,46.20
2022-12-08T11:38:22.996Z,45.27
2022-12-08T11:41:42.020Z,46.35
2022-12-08T11:44:59.053Z,48.72
2022-12-08T11:48:17.623Z,47.80
2022-12-08T11:51:33.464Z,48.28
2022-12-08T11:54:46.003Z,44.72
2022-12-08T11:57:49.128Z,50.88
2022-12-08T12:00:51.897Z,48.03
2022-12-08T12:04:22.869Z,46.83
2022-12-08T12:07:43.816Z,42.95
2022-12-08T12:11:04.846Z,46.17
2022-12-08T12:14:32.528Z,46.87
2022-12-08T12:17:54.196Z,46.20
2022-12-08T12:21:08.182Z,48.47
2022-12-08T12:24:23.931Z,53.73
2022-12-08T12:27:37.551Z,50.15
2022-12-08T12:31:03.065Z,55.63
2022-12-08T12:34:17.066Z,50.97
2022-12-08T12:37:42.093Z,45.70
2022-12-08T12:40:44.693Z,52.58
2022-12-08T12:44:09.271Z,46.40
2022-12-08T12:47:14.733Z,49.53
2022-12-08T12:50:38.723Z,45.13
2022-12-08T12:53:41.088Z,45.85
2022-12-08T12:56:49.082Z,44.05
2022-12-08T12:59:55.226Z,45.03
2022-12-08T13:02:59.237Z,42.78
2022-12-08T13:06:02.690Z,42.83
2022-12-08T13:09:07.312Z,39.55
2022-12-08T13:12:18.077Z,37.57
2022-12-08T13:15:21.030Z,48.33
2022-12-08T13:18:26.122Z,50.42
2022-12-08T13:21:36.063Z,49.13
2022-12-08T13:24:38.615Z,50.57
2022-12-08T13:27:52.517Z,52.30
2022-12-08T13:30:59.840Z,51.50
2022-12-08T13:34:06.787Z,55.90
2022-12-08T13:37:12.324Z,60.20
2022-12-08T13:40:20.943Z,59.83
2022-12-08T13:43:38.797Z,54.95
2022-12-08T13:47:17.170Z,46.87
2022-12-08T13:57:28.798Z,44.38
2022-12-08T14:00:31.791Z,44.23
2022-12-08T14:04:12.431Z,48.13
2022-12-08T14:07:10.223Z,50.00
2022-12-08T14:10:28.448Z,53.45
2022-12-08T14:13:33.231Z,54.77
2022-12-08T14:16:57.369Z,54.90
2022-12-08T14:20:11.947Z,48.47
2022-12-08T14:23:17.457Z,55.55
2022-12-08T14:26:19.913Z,77.95
2022-12-08T14:29:36.716Z,84.00
2022-12-08T14:32:49.742Z,62.35
2022-12-08T14:35:55.002Z,86.43
2022-12-08T14:38:57.711Z,101.57
2022-12-08T14:42:06.553Z,68.00
2022-12-08T14:45:15.075Z,66.95
2022-12-08T14:48:20.527Z,52.38
2022-12-08T14:51:31.900Z,57.35
2022-12-08T14:54:34.531Z,56.85
2022-12-08T14:57:37.037Z,64.90
2022-12-08T15:00:46.471Z,43.70
2022-12-08T15:03:51.454Z,35.83
2022-12-08T15:06:57.220Z,43.53
2022-12-08T15:10:29.526Z,35.10
2022-12-08T15:13:32.071Z,38.45
2022-12-08T15:16:34.485Z,31.95
2022-12-08T15:19:37.019Z,26.52
2022-12-08T15:22:39.452Z,36.17
2022-12-08T15:25:41.914Z,34.45
2022-12-08T15:28:44.321Z,29.67
2022-12-08T15:31:47.030Z,40.38
2022-12-08T15:34:50.016Z,33.35
2022-12-08T15:37:52.504Z,38.85
2022-12-08T15:40:56.420Z,25.40
2022-12-08T15:43:58.773Z,40.15
2022-12-08T15:47:01.866Z,41.72
2022-12-08T15:50:05.480Z,42.03
2022-12-08T15:53:12.528Z,34.72
2022-12-08T15:56:30.385Z,34.97
2022-12-08T15:59:32.880Z,84.13
2022-12-08T16:03:04.928Z,35.13
2022-12-08T16:06:50.943Z,32.17
2022-12-08T16:09:32.829Z,29.95
2022-12-08T16:16:21.500Z,34.75
2022-12-08T16:19:23.961Z,22.95
2022-12-08T16:26:20.278Z,26.95
2022-12-08T16:29:19.754Z,22.85
2022-12-08T16:32:22.495Z,17.03
2022-12-08T16:35:24.972Z,31.73
2022-12-08T16:38:27.462Z,29.83
2022-12-08T16:41:48.504Z,24.48
2022-12-08T16:44:51.145Z,21.03
2022-12-08T16:48:00.751Z,31.55
2022-12-08T16:51:04.629Z,28.50
2022-12-08T16:54:07.143Z,32.30
2022-12-08T16:57:09.553Z,28.90
2022-12-08T17:00:18.150Z,23.00
2022-12-08T17:03:21.027Z,20.75
2022-12-08T17:06:23.527Z,23.38
2022-12-08T17:09:26.970Z,25.98
2022-12-08T17:12:29.624Z,28.67
2022-12-08T17:15:32.053Z,13.67
2022-12-08T17:18:34.859Z,22.25
2022-12-08T17:21:37.530Z,13.27
2022-12-08T17:24:40.081Z,20.67
2022-12-08T17:27:42.750Z,17.65
2022-12-08T17:30:45.320Z,19.35
2022-12-08T17:33:48.026Z,20.63
2022-12-08T17:36:50.969Z,18.03
2022-12-08T17:39:53.417Z,12.93
2022-12-08T17:42:55.985Z,17.65
2022-12-08T17:45:58.660Z,21.77
2022-12-08T17:49:01.265Z,17.17
2022-12-08T17:52:06.917Z,12.18
2022-12-08T17:55:10.124Z,14.02
2022-12-08T17:58:12.894Z,17.53
2022-12-08T18:01:15.448Z,14.50
2022-12-08T18:04:18.362Z,14.68
2022-12-08T18:07:20.900Z,24.27
2022-12-08T18:10:23.410Z,24.63
2022-12-08T18:13:26.149Z,25.92
2022-12-08T18:16:29.030Z,29.45
2022-12-08T18:19:31.746Z,25.40
2022-12-08T18:22:34.973Z,32.22
2022-12-08T18:25:37.506Z,27.65
2022-12-08T18:28:41.074Z,24.67
2022-12-08T18:31:44.207Z,22.87
2022-12-08T18:34:46.724Z,24.52
2022-12-08T18:37:49.334Z,27.23
2022-12-08T18:40:51.939Z,24.20
2022-12-08T18:43:57.037Z,26.97
2022-12-08T18:46:59.649Z,19.70
2022-12-08T18:50:02.777Z,26.30
2022-12-08T18:53:05.645Z,12.63
2022-12-08T18:56:09.460Z,21.17
2022-12-08T18:59:13.191Z,23.58
2022-12-08T19:02:16.217Z,22.80
2022-12-08T19:05:20.279Z,19.63
2022-12-08T19:08:28.166Z,29.92
2022-12-08T19:11:33.648Z,26.15
2022-12-08T19:14:36.277Z,26.17
2022-12-08T19:17:38.863Z,26.92
2022-12-08T19:20:41.301Z,26.88
2022-12-08T19:23:44.438Z,30.95
2022-12-08T19:26:46.906Z,33.53
2022-12-08T19:29:49.459Z,29.40
2022-12-08T19:32:52.111Z,30.88
2022-12-08T19:35:54.693Z,32.70
2022-12-08T19:39:15.984Z,29.37
2022-12-08T19:42:39.351Z,33.30
2022-12-08T19:45:44.101Z,47.30
2022-12-08T19:48:46.916Z,31.57
2022-12-08T19:51:49.563Z,31.80
2022-12-08T19:54:52.398Z,37.22
2022-12-08T19:57:56.773Z,28.08
2022-12-08T20:00:59.511Z,29.83
2022-12-08T20:04:01.953Z,29.38
2022-12-08T20:07:04.508Z,27.55
2022-12-08T20:10:14.458Z,25.50
2022-12-08T20:13:35.655Z,26.05
2022-12-08T20:16:38.313Z,30.60
2022-12-08T20:19:41.384Z,34.35
2022-12-08T20:22:45.343Z,29.93
2022-12-08T20:25:48.317Z,31.23
2022-12-08T20:28:57.846Z,30.80
2022-12-08T20:32:00.671Z,33.15
2022-12-08T20:35:03.984Z,36.27
2022-12-08T20:38:06.989Z,37.45
2022-12-08T20:41:10.235Z,33.58
2022-12-08T20:44:12.750Z,45.20
2022-12-08T20:47:16.163Z,40.57
2022-12-08T20:50:19.022Z,47.83
2022-12-08T20:53:21.913Z,50.60
2022-12-08T20:56:25.728Z,44.90
2022-12-08T20:59:28.857Z,45.83
2022-12-08T21:02:31.542Z,53.17
2022-12-08T21:05:36.272Z,70.85
2022-12-08T21:08:39.388Z,66.00
2022-12-08T21:11:42.177Z,67.05
2022-12-08T21:14:45.191Z,75.07
2022-12-08T21:17:48.045Z,66.75
2022-12-08T21:20:51.650Z,88.13
2022-12-08T21:23:54.489Z,107.03
2022-12-08T21:26:57.146Z,115.00
2022-12-08T21:29:59.740Z,160.23
2022-12-08T21:33:02.244Z,230.07
2022-12-08T21:36:12.107Z,199.17
2022-12-08T21:39:14.652Z,128.65
2022-12-08T21:42:35.883Z,96.07
2022-12-08T21:45:39.691Z,141.50
2022-12-08T21:48:42.211Z,114.75
2022-12-08T21:51:44.744Z,117.80
2022-12-08T21:54:47.407Z,131.40
2022-12-08T21:57:49.897Z,95.57
2022-12-08T22:00:52.628Z,85.80
2022-12-08T22:03:55.817Z,98.20
2022-12-08T22:06:58.432Z,88.20
2022-12-08T22:10:01.070Z,54.40
2022-12-08T22:13:03.992Z,50.22
2022-12-08T22:16:08.722Z,42.97
2022-12-08T22:19:12.200Z,46.95
2022-12-08T22:22:16.204Z,47.53
2022-12-08T22:25:18.787Z,40.40
2022-12-08T22:28:21.165Z,42.42
2022-12-08T22:31:23.657Z,45.57
2022-12-08T22:34:26.237Z,37.67
2022-12-08T22:37:28.875Z,38.55
2022-12-08T22:40:31.283Z,40.70
2022-12-08T22:43:34.200Z,39.57
2022-12-08T22:46:37.017Z,40.85
2022-12-08T22:49:39.473Z,39.47
2022-12-08T22:52:42.226Z,48.00
2022-12-08T22:55:45.125Z,43.53
2022-12-08T22:58:48.290Z,35.88
2022-12-08T23:01:51.465Z,33.50
2022-12-08T23:04:57.582Z,34.17
2022-12-08T23:08:00.514Z,30.93
2022-12-08T23:11:02.957Z,35.33
2022-12-08T23:14:05.420Z,32.78
2022-12-08T23:17:08.186Z,36.88
2022-12-08T23:20:11.758Z,36.13
2022-12-08T23:23:15.043Z,32.92
2022-12-08T23:26:22.098Z,34.85
2022-12-08T23:29:24.680Z,35.27
2022-12-08T23:32:27.479Z,32.08
2022-12-08T23:35:29.999Z,36.33
2022-12-08T23:38:33.110Z,31.92
2022-12-08T23:41:35.541Z,33.57
2022-12-08T23:44:38.093Z,33.00
2022-12-08T23:47:40.609Z,30.60
2022-12-08T23:50:43.095Z,33.28
2022-12-08T23:53:45.989Z,33.07
2022-12-08T23:56:48.460Z,30.65
2022-12-08T23:59:50.942Z,34.13
